Weather History for Thedford, NE

Change the Weather History Date:

Friday, March 7, 2014

  Actual Average (KLBF) Record (KLBF)
Temperature  
Mean Temperature 36 °F 35 °F  
Max Temperature 48 °F 50 °F 78 °F (1879)
Min Temperature 23 °F 21 °F -13 °F (1920)
Degree Days  
Heating Degree Days 30 30  
Month to date heating degree days 215  
Since 1 July heating degree days 5243  
Cooling Degree Days 0 0  
Month to date cooling degree days 0  
Year to date cooling degree days 0  
Moisture  
Dew Point 26 °F    
Average Humidity 75    
Maximum Humidity 91    
Minimum Humidity 55    
Precipitation  
Precipitation 0.00 in 0.03 in 0.71 in (2000)
Month to date precipitation 0.19  
Year to date precipitation 1.03  
Snow  
Snow 0.00 in 0.10 in 6.00 in (1998)
Month to date snowfall 1.1  
Since 1 July snowfall 22.0  
Snow Depth -    
Sea Level Pressure  
Sea Level Pressure 29.98 in    
Wind  
Wind Speed 11 mph (North)    
Max Wind Speed 21 mph    
Max Gust Speed 25 mph    
Visibility 8 miles    
Events Snow    
T = Trace of Precipitation, MM = Missing Value Source: NWS Daily Summary

Daily Weather History Graph

Daily Weather History Graph

Search for Another Location

Airport:

Trip Planner

Search our weather history database for the weather conditions in past years. The results will help you decide how hot, cold, wet, or windy it might be!

Date:

Astronomy

Mar. 07, 2014 Rise Set
Actual Time 7:07 AM CST 6:39 PM CST
Civil Twilight 6:39 AM CST 7:07 PM CST
Nautical Twilight 6:07 AM CST 7:39 PM CST
Astronomical Twilight 5:34 AM CST 8:12 PM CST
Moon 10:55 AM CST (3/7) 12:52 AM CST (3/7)
Length of Visible Light 12h 27m
Length of Day
11h 32m
Waxing Crescent, 42% of the Moon is Illuminated
Mar 7
Waxing Crescent
Mar 8
First Quarter
Mar 16
Full
Mar 23
Last Quarter
Mar 30
New

Hourly Weather History & Observations

Time (CST) Temp. Windchill Dew Point Humidity Pressure Visibility Wind Dir Wind Speed Gust Speed Precip Events Conditions
12:15 AM 43.7 °F 39.7 °F 32.5 °F 65% 29.72 in 10.0 mi WNW 6.9 mph - N/A   Clear
12:35 AM 48.2 °F - 32.5 °F 55% 29.73 in 10.0 mi WNW 10.4 mph - N/A   Clear
12:55 AM 47.8 °F - 33.3 °F 57% 29.74 in 10.0 mi NW 8.1 mph - N/A   Clear
1:15 AM 46.6 °F - 33.8 °F 61% 29.75 in 10.0 mi NW 11.5 mph - N/A   Clear
1:35 AM 45.7 °F 41.0 °F 33.1 °F 61% 29.76 in 10.0 mi NW 9.2 mph - N/A   Clear
1:55 AM 44.1 °F 38.6 °F 32.9 °F 65% 29.78 in 10.0 mi NW 10.4 mph - N/A   Clear
2:15 AM 44.4 °F 37.9 °F 33.1 °F 64% 29.78 in 10.0 mi NNW 13.8 mph - N/A   Clear
2:35 AM 43.7 °F 38.6 °F 32.9 °F 66% 29.78 in 10.0 mi NNW 9.2 mph - N/A   Clear
2:55 AM 42.4 °F 37.0 °F 32.9 °F 69% 29.78 in 10.0 mi NNW 9.2 mph - N/A   Clear
3:15 AM 42.1 °F 36.6 °F 32.9 °F 70% 29.79 in 10.0 mi NNW 9.2 mph - N/A   Clear
3:35 AM 42.1 °F 34.5 °F 33.4 °F 71% 29.79 in 10.0 mi North 15.0 mph 19.6 mph N/A   Clear
3:55 AM 41.2 °F 34.5 °F 33.4 °F 74% 29.80 in 10.0 mi North 11.5 mph 17.3 mph N/A   Clear
4:15 AM 40.3 °F 33.4 °F 33.4 °F 77% 29.80 in 10.0 mi North 11.5 mph - N/A   Clear
4:35 AM 39.9 °F 33.4 °F 33.8 °F 79% 29.81 in 10.0 mi North 10.4 mph - N/A   Clear
4:55 AM 39.7 °F 32.7 °F 34.0 °F 80% 29.82 in 10.0 mi North 11.5 mph 16.1 mph N/A   Clear
5:15 AM 39.6 °F 33.0 °F 34.0 °F 80% 29.82 in 10.0 mi North 10.4 mph 21.9 mph N/A   Scattered Clouds
5:35 AM 39.2 °F 31.6 °F 33.8 °F 81% 29.82 in 10.0 mi North 12.7 mph 18.4 mph N/A   Mostly Cloudy
5:55 AM 38.7 °F 31.4 °F 34.0 °F 83% 29.85 in 10.0 mi North 11.5 mph 19.6 mph N/A   Mostly Cloudy
6:15 AM 38.3 °F 31.4 °F 33.8 °F 84% 29.85 in 10.0 mi North 10.4 mph 21.9 mph N/A   Overcast
6:35 AM 37.9 °F 28.2 °F 33.8 °F 85% 29.86 in 10.0 mi North 18.4 mph 21.9 mph N/A   Overcast
6:55 AM 37.6 °F 28.8 °F 33.3 °F 84% 29.87 in 10.0 mi North 15.0 mph 21.9 mph N/A   Overcast
7:15 AM 36.7 °F 26.6 °F 32.2 °F 84% 29.87 in 10.0 mi North 18.4 mph 25.3 mph N/A   Overcast
7:35 AM 35.6 °F 27.1 °F 32.0 °F 87% 29.90 in 5.0 mi North 12.7 mph 19.6 mph N/A   Overcast
7:55 AM 34.7 °F 25.1 °F 31.6 °F 89% 29.91 in 5.0 mi North 15.0 mph 25.3 mph N/A   Overcast
8:15 AM 34.0 °F 23.4 °F 31.3 °F 90% 29.93 in 4.0 mi North 17.3 mph 21.9 mph N/A   Overcast
8:35 AM 33.8 °F 26.4 °F 30.6 °F 88% 29.95 in 4.0 mi North 9.2 mph 21.9 mph N/A   Overcast
8:55 AM 33.3 °F 23.7 °F 30.9 °F 91% 29.96 in 2.0 mi NNE 13.8 mph 18.4 mph N/A   Overcast
9:15 AM 32.9 °F 23.7 °F 30.2 °F 90% 29.97 in 2.5 mi North 12.7 mph - N/A   Overcast
9:35 AM 32.0 °F 21.2 °F 29.3 °F 90% 29.98 in 2.0 mi North 16.1 mph 21.9 mph N/A Snow Light Snow
9:55 AM 32.0 °F 22.1 °F 29.1 °F 89% 29.99 in 1.2 mi North 13.8 mph 20.7 mph N/A Snow Light Snow
10:15 AM 31.6 °F 20.7 °F 28.4 °F 88% 30.00 in 0.8 mi NNE 16.1 mph 20.7 mph N/A Snow Light Snow
10:35 AM 30.9 °F 21.2 °F 27.9 °F 88% 30.01 in 0.8 mi North 12.7 mph 19.6 mph N/A Snow Light Snow
10:55 AM 30.2 °F 20.2 °F 27.7 °F 90% 30.02 in 0.8 mi North 12.7 mph 17.3 mph N/A Snow Light Snow
11:15 AM 30.2 °F 21.3 °F 27.5 °F 90% 30.02 in 5.0 mi North 10.4 mph - N/A   Overcast
11:35 AM 29.8 °F 18.9 °F 25.2 °F 83% 30.03 in 2.5 mi North 15.0 mph 20.7 mph N/A Snow Light Snow
11:55 AM 29.5 °F 17.2 °F 24.3 °F 81% 30.03 in 7.0 mi North 18.4 mph 24.2 mph N/A Snow Light Snow
12:15 PM 30.0 °F 20.5 °F 24.1 °F 79% 30.03 in 10.0 mi North 11.5 mph 23.0 mph N/A   Overcast
12:35 PM 30.2 °F 17.4 °F 22.8 °F 74% 30.03 in 10.0 mi North 20.7 mph 25.3 mph N/A   Overcast
12:55 PM 30.7 °F 20.0 °F 22.6 °F 72% 30.03 in 10.0 mi North 15.0 mph 25.3 mph N/A   Overcast
1:15 PM 30.2 °F 17.4 °F 22.3 °F 72% 30.03 in 10.0 mi North 20.7 mph - N/A   Overcast
1:35 PM 30.9 °F 18.7 °F 22.5 °F 71% 30.04 in 10.0 mi NNW 19.6 mph 24.2 mph N/A   Overcast
1:55 PM 30.7 °F 20.9 °F 21.9 °F 70% 30.04 in 10.0 mi North 12.7 mph 23.0 mph N/A   Mostly Cloudy
2:15 PM 31.6 °F 20.7 °F 21.9 °F 67% 30.03 in 10.0 mi North 16.1 mph 21.9 mph N/A   Mostly Cloudy
2:35 PM 31.1 °F 19.7 °F 21.6 °F 68% 30.03 in 10.0 mi North 17.3 mph 21.9 mph N/A   Overcast
2:55 PM 31.6 °F 21.2 °F 21.9 °F 67% 30.04 in 10.0 mi North 15.0 mph 25.3 mph N/A   Mostly Cloudy
5:15 PM 31.1 °F 20.1 °F 20.1 °F 64% 30.08 in 10.0 mi North 16.1 mph 21.9 mph N/A   Scattered Clouds
5:35 PM 31.1 °F 20.9 °F 19.9 °F 63% 30.08 in 10.0 mi North 13.8 mph 20.7 mph N/A   Clear
5:55 PM 31.5 °F 23.5 °F 20.3 °F 63% 30.09 in 10.0 mi North 9.2 mph - N/A   Clear
6:15 PM 31.5 °F 22.9 °F 20.3 °F 63% 30.10 in 10.0 mi North 10.4 mph - N/A   Clear
6:35 PM 30.6 °F 22.4 °F 19.8 °F 64% 30.10 in 10.0 mi North 9.2 mph 16.1 mph N/A   Clear
6:55 PM 29.5 °F 20.4 °F 19.2 °F 66% 30.11 in 10.0 mi North 10.4 mph - N/A   Clear
7:15 PM 28.9 °F 20.4 °F 19.4 °F 68% 30.12 in 10.0 mi North 9.2 mph - N/A   Clear
7:35 PM 28.6 °F 20.7 °F 19.4 °F 69% 30.14 in 10.0 mi North 8.1 mph - N/A   Clear
7:55 PM 28.4 °F 19.7 °F 19.0 °F 68% 30.15 in 10.0 mi North 9.2 mph - N/A   Clear
8:15 PM 27.7 °F 20.4 °F 18.9 °F 69% 30.16 in 10.0 mi North 6.9 mph - N/A   Clear
8:35 PM 27.1 °F 20.7 °F 19.2 °F 72% 30.16 in 10.0 mi NNE 5.8 mph - N/A   Scattered Clouds
8:55 PM 27.1 °F 16.4 °F 19.0 °F 72% 30.17 in 10.0 mi North 12.7 mph - N/A   Scattered Clouds
9:15 PM 26.8 °F 20.2 °F 19.0 °F 73% 30.17 in 10.0 mi North 5.8 mph - N/A   Scattered Clouds
9:35 PM 26.1 °F 18.4 °F 19.2 °F 75% 30.19 in 10.0 mi North 6.9 mph - N/A   Scattered Clouds
9:55 PM 26.1 °F 18.4 °F 18.3 °F 73% 30.20 in 10.0 mi North 6.9 mph - N/A   Scattered Clouds
10:15 PM 25.7 °F 17.1 °F 18.3 °F 74% 30.21 in 10.0 mi North 8.1 mph - N/A   Clear
10:35 PM 25.5 °F 16.9 °F 18.0 °F 73% 30.21 in 10.0 mi North 8.1 mph - N/A   Clear
10:55 PM 25.0 °F 18.1 °F 18.0 °F 75% 30.22 in 10.0 mi North 5.8 mph - N/A   Clear
11:15 PM 24.3 °F 19.9 °F 18.5 °F 79% 30.22 in 10.0 mi North 3.5 mph - N/A   Clear
11:35 PM 23.9 °F 19.5 °F 18.5 °F 80% 30.22 in 10.0 mi North 3.5 mph - N/A   Clear
11:55 PM 23.7 °F 16.6 °F 18.9 °F 82% 30.22 in 10.0 mi North 5.8 mph - N/A   Clear